sensor_id;sensor_type;location;lat;lon;timestamp;P1;durP1;ratioP1;P2;durP2;ratioP2
74632;SDS011;63139;52.018;8.552;2022-10-03T00:01:42;13.85;;;3.28;;
74632;SDS011;63139;52.018;8.552;2022-10-03T00:04:26;16.02;;;3.30;;
74632;SDS011;63139;52.018;8.552;2022-10-03T00:07:09;12.98;;;2.53;;
74632;SDS011;63139;52.018;8.552;2022-10-03T00:09:51;15.98;;;3.15;;
74632;SDS011;63139;52.018;8.552;2022-10-03T00:12:34;13.30;;;3.20;;
74632;SDS011;63139;52.018;8.552;2022-10-03T00:15:04;11.38;;;2.75;;
74632;SDS011;63139;52.018;8.552;2022-10-03T00:17:36;12.80;;;3.10;;
74632;SDS011;63139;52.018;8.552;2022-10-03T00:22:56;17.67;;;3.75;;
74632;SDS011;63139;52.018;8.552;2022-10-03T00:25:29;9.30;;;2.70;;
74632;SDS011;63139;52.018;8.552;2022-10-03T00:28:04;11.57;;;3.35;;
74632;SDS011;63139;52.018;8.552;2022-10-03T00:33:29;16.48;;;3.63;;
74632;SDS011;63139;52.018;8.552;2022-10-03T00:36:00;10.27;;;3.47;;
74632;SDS011;63139;52.018;8.552;2022-10-03T00:38:36;16.65;;;3.90;;
74632;SDS011;63139;52.018;8.552;2022-10-03T00:41:19;6.60;;;2.72;;
74632;SDS011;63139;52.018;8.552;2022-10-03T00:44:01;11.45;;;2.63;;
74632;SDS011;63139;52.018;8.552;2022-10-03T00:46:44;17.15;;;3.25;;
74632;SDS011;63139;52.018;8.552;2022-10-03T00:52:16;18.35;;;4.53;;
74632;SDS011;63139;52.018;8.552;2022-10-03T00:54:56;9.73;;;2.75;;
74632;SDS011;63139;52.018;8.552;2022-10-03T00:57:42;13.35;;;2.88;;
74632;SDS011;63139;52.018;8.552;2022-10-03T01:00:51;13.55;;;3.45;;
74632;SDS011;63139;52.018;8.552;2022-10-03T01:03:23;16.33;;;3.83;;
74632;SDS011;63139;52.018;8.552;2022-10-03T01:06:00;11.75;;;3.45;;
74632;SDS011;63139;52.018;8.552;2022-10-03T01:08:47;14.60;;;4.32;;
74632;SDS011;63139;52.018;8.552;2022-10-03T01:11:25;14.15;;;4.30;;
74632;SDS011;63139;52.018;8.552;2022-10-03T01:14:03;30.27;;;6.93;;
74632;SDS011;63139;52.018;8.552;2022-10-03T01:16:36;21.05;;;5.90;;
74632;SDS011;63139;52.018;8.552;2022-10-03T01:19:08;21.50;;;5.85;;
74632;SDS011;63139;52.018;8.552;2022-10-03T01:21:46;26.25;;;6.10;;
74632;SDS011;63139;52.018;8.552;2022-10-03T01:24:22;21.55;;;6.15;;
74632;SDS011;63139;52.018;8.552;2022-10-03T01:26:57;28.15;;;6.65;;
74632;SDS011;63139;52.018;8.552;2022-10-03T01:29:27;22.55;;;7.00;;
74632;SDS011;63139;52.018;8.552;2022-10-03T01:32:00;23.42;;;5.97;;
74632;SDS011;63139;52.018;8.552;2022-10-03T01:34:32;23.63;;;7.43;;
74632;SDS011;63139;52.018;8.552;2022-10-03T01:37:03;19.25;;;6.40;;
74632;SDS011;63139;52.018;8.552;2022-10-03T01:39:33;19.67;;;6.53;;
74632;SDS011;63139;52.018;8.552;2022-10-03T01:42:05;20.30;;;5.72;;
74632;SDS011;63139;52.018;8.552;2022-10-03T01:44:37;24.30;;;6.80;;
74632;SDS011;63139;52.018;8.552;2022-10-03T01:47:13;22.42;;;6.55;;
74632;SDS011;63139;52.018;8.552;2022-10-03T01:49:44;17.73;;;6.43;;
74632;SDS011;63139;52.018;8.552;2022-10-03T01:52:14;22.58;;;7.53;;
74632;SDS011;63139;52.018;8.552;2022-10-03T01:54:45;26.88;;;7.45;;
74632;SDS011;63139;52.018;8.552;2022-10-03T01:57:16;34.38;;;8.20;;
74632;SDS011;63139;52.018;8.552;2022-10-03T01:59:47;30.45;;;8.35;;
74632;SDS011;63139;52.018;8.552;2022-10-03T02:02:20;24.63;;;7.60;;
74632;SDS011;63139;52.018;8.552;2022-10-03T02:04:50;16.73;;;5.07;;
74632;SDS011;63139;52.018;8.552;2022-10-03T02:07:21;18.35;;;5.22;;
74632;SDS011;63139;52.018;8.552;2022-10-03T02:09:53;17.42;;;5.18;;
74632;SDS011;63139;52.018;8.552;2022-10-03T02:12:26;33.65;;;7.75;;
74632;SDS011;63139;52.018;8.552;2022-10-03T02:14:58;32.13;;;8.25;;
74632;SDS011;63139;52.018;8.552;2022-10-03T02:17:26;27.00;;;7.38;;
74632;SDS011;63139;52.018;8.552;2022-10-03T02:19:56;16.55;;;5.63;;
74632;SDS011;63139;52.018;8.552;2022-10-03T02:22:30;24.92;;;7.65;;
74632;SDS011;63139;52.018;8.552;2022-10-03T02:25:02;23.83;;;7.53;;
74632;SDS011;63139;52.018;8.552;2022-10-03T02:27:57;27.27;;;8.63;;
74632;SDS011;63139;52.018;8.552;2022-10-03T02:30:51;32.72;;;7.60;;
74632;SDS011;63139;52.018;8.552;2022-10-03T02:33:32;20.60;;;6.70;;
74632;SDS011;63139;52.018;8.552;2022-10-03T02:42:24;29.35;;;8.07;;
74632;SDS011;63139;52.018;8.552;2022-10-03T02:45:08;24.73;;;7.28;;
74632;SDS011;63139;52.018;8.552;2022-10-03T02:50:40;23.55;;;6.88;;
74632;SDS011;63139;52.018;8.552;2022-10-03T02:53:30;31.33;;;7.57;;
74632;SDS011;63139;52.018;8.552;2022-10-03T02:59:47;23.42;;;6.30;;
74632;SDS011;63139;52.018;8.552;2022-10-03T03:02:53;23.00;;;8.02;;
74632;SDS011;63139;52.018;8.552;2022-10-03T03:05:58;19.25;;;5.28;;
74632;SDS011;63139;52.018;8.552;2022-10-03T03:08:57;19.48;;;5.60;;
74632;SDS011;63139;52.018;8.552;2022-10-03T03:17:16;22.58;;;6.93;;
74632;SDS011;63139;52.018;8.552;2022-10-03T03:20:02;20.10;;;6.75;;
74632;SDS011;63139;52.018;8.552;2022-10-03T03:22:35;24.77;;;7.13;;
74632;SDS011;63139;52.018;8.552;2022-10-03T03:28:02;36.90;;;8.13;;
74632;SDS011;63139;52.018;8.552;2022-10-03T03:30:36;39.95;;;10.18;;
74632;SDS011;63139;52.018;8.552;2022-10-03T03:33:09;24.25;;;7.47;;
74632;SDS011;63139;52.018;8.552;2022-10-03T03:35:45;37.28;;;9.13;;
74632;SDS011;63139;52.018;8.552;2022-10-03T03:38:20;31.67;;;7.85;;
74632;SDS011;63139;52.018;8.552;2022-10-03T03:40:53;25.17;;;6.63;;
74632;SDS011;63139;52.018;8.552;2022-10-03T03:43:31;36.15;;;8.15;;
74632;SDS011;63139;52.018;8.552;2022-10-03T03:46:11;24.42;;;6.43;;
74632;SDS011;63139;52.018;8.552;2022-10-03T03:48:45;44.28;;;11.10;;
74632;SDS011;63139;52.018;8.552;2022-10-03T03:57:06;29.35;;;8.38;;
74632;SDS011;63139;52.018;8.552;2022-10-03T03:59:44;29.40;;;8.02;;
74632;SDS011;63139;52.018;8.552;2022-10-03T04:02:24;47.53;;;11.10;;
74632;SDS011;63139;52.018;8.552;2022-10-03T04:04:59;28.50;;;7.60;;
74632;SDS011;63139;52.018;8.552;2022-10-03T04:07:36;28.05;;;8.18;;
74632;SDS011;63139;52.018;8.552;2022-10-03T04:10:11;44.97;;;9.02;;
74632;SDS011;63139;52.018;8.552;2022-10-03T04:12:46;31.05;;;8.27;;
74632;SDS011;63139;52.018;8.552;2022-10-03T04:15:39;22.40;;;7.30;;
74632;SDS011;63139;52.018;8.552;2022-10-03T04:18:21;27.25;;;6.68;;
74632;SDS011;63139;52.018;8.552;2022-10-03T04:20:55;22.33;;;6.43;;
74632;SDS011;63139;52.018;8.552;2022-10-03T04:23:34;28.73;;;7.35;;
74632;SDS011;63139;52.018;8.552;2022-10-03T04:26:23;20.48;;;6.13;;
74632;SDS011;63139;52.018;8.552;2022-10-03T04:29:10;28.23;;;7.25;;
74632;SDS011;63139;52.018;8.552;2022-10-03T04:31:49;22.15;;;6.68;;
74632;SDS011;63139;52.018;8.552;2022-10-03T04:34:28;31.13;;;7.45;;
74632;SDS011;63139;52.018;8.552;2022-10-03T04:37:02;26.67;;;7.57;;
74632;SDS011;63139;52.018;8.552;2022-10-03T04:39:40;34.13;;;8.98;;
74632;SDS011;63139;52.018;8.552;2022-10-03T04:42:11;30.30;;;8.82;;
74632;SDS011;63139;52.018;8.552;2022-10-03T04:44:45;31.40;;;7.65;;
74632;SDS011;63139;52.018;8.552;2022-10-03T04:47:15;34.88;;;9.13;;
74632;SDS011;63139;52.018;8.552;2022-10-03T04:49:45;36.33;;;8.57;;
74632;SDS011;63139;52.018;8.552;2022-10-03T04:52:15;37.33;;;8.68;;
74632;SDS011;63139;52.018;8.552;2022-10-03T04:54:46;35.42;;;7.75;;
74632;SDS011;63139;52.018;8.552;2022-10-03T04:57:20;31.83;;;7.82;;
74632;SDS011;63139;52.018;8.552;2022-10-03T04:59:50;43.13;;;10.00;;
74632;SDS011;63139;52.018;8.552;2022-10-03T05:02:24;27.70;;;8.18;;
74632;SDS011;63139;52.018;8.552;2022-10-03T05:05:06;24.95;;;6.78;;
74632;SDS011;63139;52.018;8.552;2022-10-03T05:07:44;23.95;;;7.03;;
74632;SDS011;63139;52.018;8.552;2022-10-03T05:10:19;42.45;;;10.13;;
74632;SDS011;63139;52.018;8.552;2022-10-03T05:12:52;25.20;;;7.20;;
74632;SDS011;63139;52.018;8.552;2022-10-03T05:15:22;23.08;;;6.25;;
74632;SDS011;63139;52.018;8.552;2022-10-03T05:17:51;36.28;;;7.53;;
74632;SDS011;63139;52.018;8.552;2022-10-03T05:20:28;25.67;;;7.50;;
74632;SDS011;63139;52.018;8.552;2022-10-03T05:23:01;33.45;;;7.68;;
74632;SDS011;63139;52.018;8.552;2022-10-03T05:25:39;36.63;;;7.90;;
74632;SDS011;63139;52.018;8.552;2022-10-03T05:28:15;40.80;;;8.85;;
74632;SDS011;63139;52.018;8.552;2022-10-03T05:30:47;37.97;;;9.63;;
74632;SDS011;63139;52.018;8.552;2022-10-03T05:33:18;34.28;;;9.35;;
74632;SDS011;63139;52.018;8.552;2022-10-03T05:35:50;34.75;;;10.13;;
74632;SDS011;63139;52.018;8.552;2022-10-03T05:38:28;21.52;;;7.78;;
74632;SDS011;63139;52.018;8.552;2022-10-03T05:41:18;22.77;;;8.30;;
74632;SDS011;63139;52.018;8.552;2022-10-03T05:43:49;20.95;;;7.07;;
74632;SDS011;63139;52.018;8.552;2022-10-03T05:46:20;22.05;;;7.07;;
74632;SDS011;63139;52.018;8.552;2022-10-03T05:48:54;23.13;;;7.63;;
74632;SDS011;63139;52.018;8.552;2022-10-03T05:51:36;19.90;;;6.85;;
74632;SDS011;63139;52.018;8.552;2022-10-03T05:54:18;22.20;;;8.35;;
74632;SDS011;63139;52.018;8.552;2022-10-03T06:08:46;21.85;;;6.85;;
74632;SDS011;63139;52.018;8.552;2022-10-03T06:11:19;15.15;;;5.30;;
74632;SDS011;63139;52.018;8.552;2022-10-03T06:14:04;11.75;;;4.63;;
74632;SDS011;63139;52.018;8.552;2022-10-03T06:16:42;15.30;;;5.40;;
74632;SDS011;63139;52.018;8.552;2022-10-03T06:19:16;13.77;;;5.57;;
74632;SDS011;63139;52.018;8.552;2022-10-03T06:25:07;14.25;;;6.00;;
74632;SDS011;63139;52.018;8.552;2022-10-03T06:28:01;16.38;;;6.22;;
74632;SDS011;63139;52.018;8.552;2022-10-03T06:30:45;12.57;;;5.25;;
74632;SDS011;63139;52.018;8.552;2022-10-03T06:33:31;9.63;;;4.60;;
74632;SDS011;63139;52.018;8.552;2022-10-03T06:42:21;8.85;;;4.38;;
74632;SDS011;63139;52.018;8.552;2022-10-03T06:48:02;7.97;;;4.20;;
74632;SDS011;63139;52.018;8.552;2022-10-03T06:50:43;12.65;;;5.13;;
74632;SDS011;63139;52.018;8.552;2022-10-03T06:53:33;11.07;;;4.50;;
74632;SDS011;63139;52.018;8.552;2022-10-03T06:56:34;11.57;;;4.80;;
74632;SDS011;63139;52.018;8.552;2022-10-03T07:05:25;14.27;;;6.20;;
74632;SDS011;63139;52.018;8.552;2022-10-03T07:08:16;9.63;;;4.00;;
74632;SDS011;63139;52.018;8.552;2022-10-03T07:11:13;8.73;;;3.92;;
74632;SDS011;63139;52.018;8.552;2022-10-03T07:14:00;11.45;;;4.50;;
74632;SDS011;63139;52.018;8.552;2022-10-03T07:19:37;10.43;;;4.50;;
74632;SDS011;63139;52.018;8.552;2022-10-03T07:22:23;10.55;;;4.15;;
74632;SDS011;63139;52.018;8.552;2022-10-03T07:31:27;9.88;;;4.45;;
74632;SDS011;63139;52.018;8.552;2022-10-03T07:34:09;11.55;;;4.60;;
74632;SDS011;63139;52.018;8.552;2022-10-03T07:36:46;12.80;;;5.32;;
74632;SDS011;63139;52.018;8.552;2022-10-03T07:42:34;7.53;;;4.53;;
74632;SDS011;63139;52.018;8.552;2022-10-03T07:45:29;7.30;;;4.70;;
74632;SDS011;63139;52.018;8.552;2022-10-03T07:48:08;9.90;;;4.43;;
74632;SDS011;63139;52.018;8.552;2022-10-03T07:50:49;6.63;;;4.25;;
74632;SDS011;63139;52.018;8.552;2022-10-03T07:56:42;9.85;;;4.55;;
74632;SDS011;63139;52.018;8.552;2022-10-03T07:59:32;6.22;;;3.65;;
74632;SDS011;63139;52.018;8.552;2022-10-03T08:02:14;7.07;;;4.30;;
74632;SDS011;63139;52.018;8.552;2022-10-03T08:04:57;8.93;;;4.40;;
74632;SDS011;63139;52.018;8.552;2022-10-03T08:07:35;7.05;;;3.97;;
74632;SDS011;63139;52.018;8.552;2022-10-03T08:10:10;9.63;;;4.72;;
74632;SDS011;63139;52.018;8.552;2022-10-03T08:13:09;8.73;;;4.82;;
74632;SDS011;63139;52.018;8.552;2022-10-03T08:15:53;7.15;;;4.35;;
74632;SDS011;63139;52.018;8.552;2022-10-03T08:21:28;5.95;;;3.53;;
74632;SDS011;63139;52.018;8.552;2022-10-03T08:24:11;6.18;;;3.83;;
74632;SDS011;63139;52.018;8.552;2022-10-03T08:33:04;6.82;;;3.78;;
74632;SDS011;63139;52.018;8.552;2022-10-03T08:38:33;5.53;;;3.65;;
74632;SDS011;63139;52.018;8.552;2022-10-03T08:44:40;5.85;;;3.80;;
74632;SDS011;63139;52.018;8.552;2022-10-03T08:47:46;7.22;;;3.50;;
74632;SDS011;63139;52.018;8.552;2022-10-03T08:56:45;9.30;;;4.10;;
74632;SDS011;63139;52.018;8.552;2022-10-03T09:08:51;6.70;;;4.07;;
74632;SDS011;63139;52.018;8.552;2022-10-03T09:14:54;7.32;;;4.15;;
74632;SDS011;63139;52.018;8.552;2022-10-03T09:17:32;4.53;;;3.22;;
74632;SDS011;63139;52.018;8.552;2022-10-03T09:23:38;7.93;;;3.80;;
74632;SDS011;63139;52.018;8.552;2022-10-03T09:26:26;9.70;;;4.10;;
74632;SDS011;63139;52.018;8.552;2022-10-03T09:29:30;12.48;;;5.93;;
74632;SDS011;63139;52.018;8.552;2022-10-03T09:32:19;7.13;;;3.85;;
74632;SDS011;63139;52.018;8.552;2022-10-03T09:35:15;8.48;;;4.30;;
74632;SDS011;63139;52.018;8.552;2022-10-03T09:38:04;10.00;;;4.45;;
74632;SDS011;63139;52.018;8.552;2022-10-03T09:41:20;7.03;;;3.70;;
74632;SDS011;63139;52.018;8.552;2022-10-03T09:44:38;11.45;;;4.35;;
74632;SDS011;63139;52.018;8.552;2022-10-03T09:47:27;7.20;;;4.22;;
74632;SDS011;63139;52.018;8.552;2022-10-03T09:53:28;7.28;;;3.95;;
74632;SDS011;63139;52.018;8.552;2022-10-03T09:59:10;12.85;;;4.97;;
74632;SDS011;63139;52.018;8.552;2022-10-03T10:01:52;12.15;;;5.72;;
74632;SDS011;63139;52.018;8.552;2022-10-03T10:07:34;17.17;;;5.45;;
74632;SDS011;63139;52.018;8.552;2022-10-03T10:13:34;9.95;;;4.43;;
74632;SDS011;63139;52.018;8.552;2022-10-03T10:16:44;9.32;;;5.80;;
74632;SDS011;63139;52.018;8.552;2022-10-03T10:19:29;17.42;;;5.90;;
74632;SDS011;63139;52.018;8.552;2022-10-03T10:25:19;7.68;;;4.20;;
74632;SDS011;63139;52.018;8.552;2022-10-03T10:31:00;11.02;;;5.80;;
74632;SDS011;63139;52.018;8.552;2022-10-03T10:34:14;9.00;;;4.50;;
74632;SDS011;63139;52.018;8.552;2022-10-03T10:40:01;13.02;;;5.25;;
74632;SDS011;63139;52.018;8.552;2022-10-03T10:42:45;12.30;;;5.20;;
74632;SDS011;63139;52.018;8.552;2022-10-03T10:45:37;9.40;;;4.65;;
74632;SDS011;63139;52.018;8.552;2022-10-03T10:54:14;7.35;;;4.28;;
74632;SDS011;63139;52.018;8.552;2022-10-03T10:59:49;14.55;;;4.55;;
74632;SDS011;63139;52.018;8.552;2022-10-03T11:02:56;9.20;;;3.78;;
74632;SDS011;63139;52.018;8.552;2022-10-03T11:05:51;6.15;;;2.72;;
74632;SDS011;63139;52.018;8.552;2022-10-03T11:09:03;9.98;;;4.30;;
74632;SDS011;63139;52.018;8.552;2022-10-03T11:18:02;9.18;;;2.92;;
74632;SDS011;63139;52.018;8.552;2022-10-03T11:23:36;8.95;;;2.53;;
74632;SDS011;63139;52.018;8.552;2022-10-03T11:29:53;9.73;;;2.53;;
74632;SDS011;63139;52.018;8.552;2022-10-03T11:32:36;9.82;;;2.38;;
74632;SDS011;63139;52.018;8.552;2022-10-03T11:38:40;9.85;;;2.40;;
74632;SDS011;63139;52.018;8.552;2022-10-03T11:41:10;6.72;;;1.98;;
74632;SDS011;63139;52.018;8.552;2022-10-03T11:46:42;6.90;;;2.03;;
74632;SDS011;63139;52.018;8.552;2022-10-03T11:49:17;7.93;;;2.15;;
74632;SDS011;63139;52.018;8.552;2022-10-03T11:51:54;9.43;;;2.10;;
74632;SDS011;63139;52.018;8.552;2022-10-03T11:54:26;7.15;;;1.75;;
74632;SDS011;63139;52.018;8.552;2022-10-03T11:56:53;9.45;;;1.67;;
74632;SDS011;63139;52.018;8.552;2022-10-03T11:59:34;5.72;;;1.38;;
74632;SDS011;63139;52.018;8.552;2022-10-03T12:02:22;6.90;;;1.75;;
74632;SDS011;63139;52.018;8.552;2022-10-03T12:04:58;6.78;;;1.85;;
74632;SDS011;63139;52.018;8.552;2022-10-03T12:07:41;4.30;;;1.35;;
74632;SDS011;63139;52.018;8.552;2022-10-03T12:10:13;6.25;;;1.63;;
74632;SDS011;63139;52.018;8.552;2022-10-03T12:13:01;7.72;;;1.73;;
74632;SDS011;63139;52.018;8.552;2022-10-03T12:15:33;7.05;;;1.30;;
74632;SDS011;63139;52.018;8.552;2022-10-03T12:18:04;6.43;;;1.60;;
74632;SDS011;63139;52.018;8.552;2022-10-03T12:20:32;5.43;;;1.30;;
74632;SDS011;63139;52.018;8.552;2022-10-03T12:23:05;5.15;;;1.48;;
74632;SDS011;63139;52.018;8.552;2022-10-03T12:25:40;4.22;;;1.20;;
74632;SDS011;63139;52.018;8.552;2022-10-03T12:28:09;3.60;;;1.40;;
74632;SDS011;63139;52.018;8.552;2022-10-03T12:30:40;3.10;;;1.10;;
74632;SDS011;63139;52.018;8.552;2022-10-03T12:33:16;4.55;;;1.30;;
74632;SDS011;63139;52.018;8.552;2022-10-03T12:35:49;5.72;;;1.20;;
74632;SDS011;63139;52.018;8.552;2022-10-03T12:38:25;8.60;;;1.75;;
74632;SDS011;63139;52.018;8.552;2022-10-03T12:41:01;3.63;;;1.40;;
74632;SDS011;63139;52.018;8.552;2022-10-03T12:43:34;5.25;;;1.52;;
74632;SDS011;63139;52.018;8.552;2022-10-03T12:46:09;4.13;;;1.33;;
74632;SDS011;63139;52.018;8.552;2022-10-03T12:48:41;5.30;;;1.20;;
74632;SDS011;63139;52.018;8.552;2022-10-03T12:51:13;4.93;;;1.42;;
74632;SDS011;63139;52.018;8.552;2022-10-03T12:53:50;9.93;;;1.52;;
74632;SDS011;63139;52.018;8.552;2022-10-03T12:56:21;3.30;;;1.08;;
74632;SDS011;63139;52.018;8.552;2022-10-03T12:58:55;2.67;;;1.00;;
74632;SDS011;63139;52.018;8.552;2022-10-03T13:01:27;5.55;;;1.38;;
74632;SDS011;63139;52.018;8.552;2022-10-03T13:04:00;4.28;;;1.23;;
74632;SDS011;63139;52.018;8.552;2022-10-03T13:06:35;5.03;;;1.40;;
74632;SDS011;63139;52.018;8.552;2022-10-03T13:09:10;5.90;;;1.75;;
74632;SDS011;63139;52.018;8.552;2022-10-03T13:11:43;5.07;;;1.17;;
74632;SDS011;63139;52.018;8.552;2022-10-03T13:14:28;7.20;;;1.40;;
74632;SDS011;63139;52.018;8.552;2022-10-03T13:17:02;6.60;;;1.30;;
74632;SDS011;63139;52.018;8.552;2022-10-03T13:19:36;6.45;;;1.42;;
74632;SDS011;63139;52.018;8.552;2022-10-03T13:22:10;7.68;;;1.48;;
74632;SDS011;63139;52.018;8.552;2022-10-03T13:24:45;4.93;;;1.23;;
74632;SDS011;63139;52.018;8.552;2022-10-03T13:27:17;6.40;;;1.38;;
74632;SDS011;63139;52.018;8.552;2022-10-03T13:32:17;5.45;;;1.73;;
74632;SDS011;63139;52.018;8.552;2022-10-03T13:34:54;3.85;;;0.93;;
74632;SDS011;63139;52.018;8.552;2022-10-03T13:37:29;7.80;;;1.25;;
74632;SDS011;63139;52.018;8.552;2022-10-03T13:39:56;5.05;;;1.20;;
74632;SDS011;63139;52.018;8.552;2022-10-03T13:42:29;3.70;;;1.35;;
74632;SDS011;63139;52.018;8.552;2022-10-03T13:45:00;4.78;;;1.25;;
74632;SDS011;63139;52.018;8.552;2022-10-03T13:47:30;7.43;;;1.55;;
74632;SDS011;63139;52.018;8.552;2022-10-03T13:50:12;2.67;;;1.25;;
74632;SDS011;63139;52.018;8.552;2022-10-03T13:52:40;5.97;;;1.38;;
74632;SDS011;63139;52.018;8.552;2022-10-03T13:55:15;3.45;;;1.48;;
74632;SDS011;63139;52.018;8.552;2022-10-03T13:57:45;3.72;;;1.30;;
74632;SDS011;63139;52.018;8.552;2022-10-03T14:00:19;8.90;;;1.35;;
74632;SDS011;63139;52.018;8.552;2022-10-03T14:02:58;2.72;;;1.20;;
74632;SDS011;63139;52.018;8.552;2022-10-03T14:05:46;7.43;;;1.83;;
74632;SDS011;63139;52.018;8.552;2022-10-03T14:08:16;4.57;;;1.20;;
74632;SDS011;63139;52.018;8.552;2022-10-03T14:10:59;5.25;;;1.33;;
74632;SDS011;63139;52.018;8.552;2022-10-03T14:13:40;5.72;;;1.10;;
74632;SDS011;63139;52.018;8.552;2022-10-03T14:16:13;6.15;;;1.38;;
74632;SDS011;63139;52.018;8.552;2022-10-03T14:18:43;4.38;;;1.10;;
74632;SDS011;63139;52.018;8.552;2022-10-03T14:23:59;5.57;;;1.30;;
74632;SDS011;63139;52.018;8.552;2022-10-03T14:26:31;4.93;;;0.98;;
74632;SDS011;63139;52.018;8.552;2022-10-03T14:28:59;4.18;;;1.13;;
74632;SDS011;63139;52.018;8.552;2022-10-03T14:31:31;3.30;;;1.13;;
74632;SDS011;63139;52.018;8.552;2022-10-03T14:34:00;3.60;;;1.20;;
74632;SDS011;63139;52.018;8.552;2022-10-03T14:36:34;4.35;;;1.08;;
74632;SDS011;63139;52.018;8.552;2022-10-03T14:39:18;3.72;;;1.20;;
74632;SDS011;63139;52.018;8.552;2022-10-03T14:44:52;5.60;;;1.10;;
74632;SDS011;63139;52.018;8.552;2022-10-03T14:47:19;2.30;;;0.90;;
74632;SDS011;63139;52.018;8.552;2022-10-03T14:49:46;6.37;;;1.13;;
74632;SDS011;63139;52.018;8.552;2022-10-03T14:52:18;5.30;;;1.27;;
74632;SDS011;63139;52.018;8.552;2022-10-03T14:54:52;5.63;;;1.20;;
74632;SDS011;63139;52.018;8.552;2022-10-03T14:57:21;3.20;;;0.90;;
74632;SDS011;63139;52.018;8.552;2022-10-03T14:59:51;4.75;;;1.40;;
74632;SDS011;63139;52.018;8.552;2022-10-03T15:02:28;3.60;;;1.08;;
74632;SDS011;63139;52.018;8.552;2022-10-03T15:04:55;7.75;;;1.20;;
74632;SDS011;63139;52.018;8.552;2022-10-03T15:07:32;5.55;;;1.20;;
74632;SDS011;63139;52.018;8.552;2022-10-03T15:10:00;4.33;;;1.10;;
74632;SDS011;63139;52.018;8.552;2022-10-03T15:12:26;4.03;;;1.30;;
74632;SDS011;63139;52.018;8.552;2022-10-03T15:14:56;3.22;;;1.20;;
74632;SDS011;63139;52.018;8.552;2022-10-03T15:17:26;4.95;;;1.30;;
74632;SDS011;63139;52.018;8.552;2022-10-03T15:19:54;3.80;;;1.35;;
74632;SDS011;63139;52.018;8.552;2022-10-03T15:22:27;6.30;;;1.80;;
74632;SDS011;63139;52.018;8.552;2022-10-03T15:24:57;4.35;;;1.20;;
74632;SDS011;63139;52.018;8.552;2022-10-03T15:27:25;3.67;;;1.30;;
74632;SDS011;63139;52.018;8.552;2022-10-03T15:29:52;3.65;;;1.00;;
74632;SDS011;63139;52.018;8.552;2022-10-03T15:32:20;2.97;;;1.30;;
74632;SDS011;63139;52.018;8.552;2022-10-03T15:34:47;9.68;;;1.73;;
74632;SDS011;63139;52.018;8.552;2022-10-03T15:37:14;9.63;;;1.50;;
74632;SDS011;63139;52.018;8.552;2022-10-03T15:39:41;5.68;;;1.38;;
74632;SDS011;63139;52.018;8.552;2022-10-03T15:42:19;6.20;;;1.05;;
74632;SDS011;63139;52.018;8.552;2022-10-03T15:44:48;5.35;;;1.30;;
74632;SDS011;63139;52.018;8.552;2022-10-03T15:47:17;2.95;;;1.10;;
74632;SDS011;63139;52.018;8.552;2022-10-03T15:49:45;4.47;;;1.30;;
74632;SDS011;63139;52.018;8.552;2022-10-03T15:52:14;4.05;;;1.20;;
74632;SDS011;63139;52.018;8.552;2022-10-03T15:54:43;4.72;;;1.17;;
74632;SDS011;63139;52.018;8.552;2022-10-03T15:57:12;2.85;;;0.93;;
74632;SDS011;63139;52.018;8.552;2022-10-03T15:59:43;5.32;;;1.40;;
74632;SDS011;63139;52.018;8.552;2022-10-03T16:02:13;4.97;;;1.30;;
74632;SDS011;63139;52.018;8.552;2022-10-03T16:04:40;12.60;;;1.85;;
74632;SDS011;63139;52.018;8.552;2022-10-03T16:07:08;10.73;;;1.83;;
74632;SDS011;63139;52.018;8.552;2022-10-03T16:09:39;5.68;;;1.13;;
74632;SDS011;63139;52.018;8.552;2022-10-03T16:12:20;4.55;;;1.50;;
74632;SDS011;63139;52.018;8.552;2022-10-03T16:15:12;5.50;;;1.45;;
74632;SDS011;63139;52.018;8.552;2022-10-03T16:17:42;3.20;;;1.30;;
74632;SDS011;63139;52.018;8.552;2022-10-03T16:20:12;4.57;;;1.17;;
74632;SDS011;63139;52.018;8.552;2022-10-03T16:22:43;6.60;;;1.77;;
74632;SDS011;63139;52.018;8.552;2022-10-03T16:25:11;5.72;;;2.28;;
74632;SDS011;63139;52.018;8.552;2022-10-03T16:27:40;5.97;;;2.42;;
74632;SDS011;63139;52.018;8.552;2022-10-03T16:30:15;4.03;;;1.40;;
74632;SDS011;63139;52.018;8.552;2022-10-03T16:32:47;7.57;;;1.50;;
74632;SDS011;63139;52.018;8.552;2022-10-03T16:35:20;5.97;;;1.50;;
74632;SDS011;63139;52.018;8.552;2022-10-03T16:37:55;5.72;;;1.50;;
74632;SDS011;63139;52.018;8.552;2022-10-03T16:40:21;7.72;;;1.65;;
74632;SDS011;63139;52.018;8.552;2022-10-03T16:42:47;5.68;;;1.67;;
74632;SDS011;63139;52.018;8.552;2022-10-03T16:45:25;4.40;;;1.40;;
74632;SDS011;63139;52.018;8.552;2022-10-03T16:47:53;3.28;;;1.30;;
74632;SDS011;63139;52.018;8.552;2022-10-03T16:50:20;4.60;;;1.50;;
74632;SDS011;63139;52.018;8.552;2022-10-03T16:52:47;3.20;;;1.60;;
74632;SDS011;63139;52.018;8.552;2022-10-03T16:55:14;5.18;;;1.20;;
74632;SDS011;63139;52.018;8.552;2022-10-03T16:57:42;4.85;;;1.67;;
74632;SDS011;63139;52.018;8.552;2022-10-03T17:00:16;4.85;;;1.55;;
74632;SDS011;63139;52.018;8.552;2022-10-03T17:02:47;3.95;;;1.85;;
74632;SDS011;63139;52.018;8.552;2022-10-03T17:05:13;4.03;;;1.50;;
74632;SDS011;63139;52.018;8.552;2022-10-03T17:07:41;5.25;;;1.50;;
74632;SDS011;63139;52.018;8.552;2022-10-03T17:10:16;6.57;;;2.40;;
74632;SDS011;63139;52.018;8.552;2022-10-03T17:12:48;7.22;;;2.85;;
74632;SDS011;63139;52.018;8.552;2022-10-03T17:15:15;9.20;;;2.35;;
74632;SDS011;63139;52.018;8.552;2022-10-03T17:17:46;6.88;;;2.53;;
74632;SDS011;63139;52.018;8.552;2022-10-03T17:20:14;4.30;;;2.05;;
74632;SDS011;63139;52.018;8.552;2022-10-03T17:22:41;5.47;;;2.17;;
74632;SDS011;63139;52.018;8.552;2022-10-03T17:27:57;5.63;;;2.20;;
74632;SDS011;63139;52.018;8.552;2022-10-03T17:30:26;7.00;;;2.30;;
74632;SDS011;63139;52.018;8.552;2022-10-03T17:32:59;6.90;;;2.42;;
74632;SDS011;63139;52.018;8.552;2022-10-03T17:35:29;3.35;;;1.90;;
74632;SDS011;63139;52.018;8.552;2022-10-03T17:38:09;3.63;;;2.00;;
74632;SDS011;63139;52.018;8.552;2022-10-03T17:40:44;5.35;;;2.33;;
74632;SDS011;63139;52.018;8.552;2022-10-03T17:43:15;6.72;;;2.42;;
74632;SDS011;63139;52.018;8.552;2022-10-03T17:45:46;5.82;;;2.75;;
74632;SDS011;63139;52.018;8.552;2022-10-03T17:48:19;3.30;;;2.05;;
74632;SDS011;63139;52.018;8.552;2022-10-03T17:50:50;5.57;;;2.42;;
74632;SDS011;63139;52.018;8.552;2022-10-03T17:53:19;4.50;;;2.10;;
74632;SDS011;63139;52.018;8.552;2022-10-03T17:55:45;6.10;;;2.20;;
74632;SDS011;63139;52.018;8.552;2022-10-03T17:58:14;3.15;;;1.88;;
74632;SDS011;63139;52.018;8.552;2022-10-03T18:00:53;4.53;;;1.90;;
74632;SDS011;63139;52.018;8.552;2022-10-03T18:03:24;4.95;;;2.20;;
74632;SDS011;63139;52.018;8.552;2022-10-03T18:05:55;5.97;;;2.30;;
74632;SDS011;63139;52.018;8.552;2022-10-03T18:08:25;5.72;;;2.67;;
74632;SDS011;63139;52.018;8.552;2022-10-03T18:10:55;5.10;;;2.17;;
74632;SDS011;63139;52.018;8.552;2022-10-03T18:13:22;4.03;;;2.00;;
74632;SDS011;63139;52.018;8.552;2022-10-03T18:15:56;5.18;;;2.22;;
74632;SDS011;63139;52.018;8.552;2022-10-03T18:18:44;7.63;;;2.65;;
74632;SDS011;63139;52.018;8.552;2022-10-03T18:21:17;8.65;;;2.88;;
74632;SDS011;63139;52.018;8.552;2022-10-03T18:23:50;4.65;;;2.50;;
74632;SDS011;63139;52.018;8.552;2022-10-03T18:26:26;8.45;;;3.10;;
74632;SDS011;63139;52.018;8.552;2022-10-03T18:28:56;8.13;;;3.00;;
74632;SDS011;63139;52.018;8.552;2022-10-03T18:31:29;7.75;;;3.58;;
74632;SDS011;63139;52.018;8.552;2022-10-03T18:33:58;5.90;;;2.58;;
74632;SDS011;63139;52.018;8.552;2022-10-03T18:36:26;5.13;;;2.60;;
74632;SDS011;63139;52.018;8.552;2022-10-03T18:38:54;5.68;;;2.55;;
74632;SDS011;63139;52.018;8.552;2022-10-03T18:41:22;6.65;;;2.67;;